createdAt,value
2018-10-17T00:02:22.264Z,29.97
2018-10-17T00:04:50.142Z,30.47
2018-10-17T00:07:17.924Z,30.07
2018-10-17T00:09:45.935Z,31.40
2018-10-17T00:12:13.691Z,30.77
2018-10-17T00:14:41.443Z,29.93
2018-10-17T00:17:09.552Z,29.13
2018-10-17T00:19:37.825Z,28.90
2018-10-17T00:22:06.096Z,27.90
2018-10-17T00:24:34.079Z,29.77
2018-10-17T00:27:01.871Z,29.67
2018-10-17T00:29:29.591Z,30.70
2018-10-17T00:31:57.376Z,30.10
2018-10-17T00:34:25.168Z,27.87
2018-10-17T00:36:53.057Z,28.60
2018-10-17T00:39:20.801Z,26.83
2018-10-17T00:41:48.571Z,27.57
2018-10-17T00:44:16.326Z,27.40
2018-10-17T00:46:44.091Z,27.20
2018-10-17T00:49:11.906Z,27.30
2018-10-17T00:51:39.486Z,27.07
2018-10-17T00:54:07.223Z,27.27
2018-10-17T00:56:34.914Z,27.70
2018-10-17T00:59:07.142Z,29.17
2018-10-17T01:01:35.131Z,28.83
2018-10-17T01:04:03.170Z,28.63
2018-10-17T01:06:31.847Z,28.93
2018-10-17T01:08:59.960Z,30.83
2018-10-17T01:11:28.107Z,30.13
2018-10-17T01:13:55.831Z,31.17
2018-10-17T01:16:23.623Z,31.13
2018-10-17T01:18:51.392Z,32.30
2018-10-17T01:21:19.179Z,32.20
2018-10-17T01:23:46.983Z,32.47
2018-10-17T01:26:14.795Z,33.07
2018-10-17T01:28:42.666Z,32.13
2018-10-17T01:31:10.490Z,30.90
2018-10-17T01:33:38.264Z,30.53
2018-10-17T01:36:06.011Z,31.90
2018-10-17T01:38:33.795Z,30.57
2018-10-17T01:41:01.687Z,29.97
2018-10-17T01:43:29.607Z,29.10
2018-10-17T01:45:58.011Z,29.83
2018-10-17T01:48:25.965Z,31.10
2018-10-17T01:50:53.651Z,30.27
2018-10-17T01:53:21.439Z,31.57
2018-10-17T01:55:49.207Z,29.87
2018-10-17T01:58:16.959Z,30.37
2018-10-17T02:00:44.722Z,31.23
2018-10-17T02:03:12.463Z,31.70
2018-10-17T02:05:40.242Z,31.00
2018-10-17T02:08:08.055Z,30.87
2018-10-17T02:10:35.791Z,30.37
2018-10-17T02:13:03.758Z,32.77
2018-10-17T02:15:31.405Z,31.37
2018-10-17T02:17:59.127Z,32.97
2018-10-17T02:20:26.955Z,33.57
2018-10-17T02:22:54.769Z,33.13
2018-10-17T02:25:22.575Z,33.37
2018-10-17T02:27:50.436Z,31.67
2018-10-17T02:30:18.199Z,32.17
2018-10-17T02:32:46.003Z,33.20
2018-10-17T02:35:15.008Z,34.27
2018-10-17T02:37:42.969Z,36.37
2018-10-17T02:40:11.030Z,34.87
2018-10-17T02:42:38.899Z,35.83
2018-10-17T02:45:08.911Z,35.37
2018-10-17T02:47:36.799Z,35.70
2018-10-17T02:50:07.483Z,36.93
2018-10-17T02:52:37.068Z,35.53
2018-10-17T02:55:05.199Z,34.97
2018-10-17T02:57:33.221Z,34.30
2018-10-17T03:00:01.455Z,36.67
2018-10-17T03:02:29.442Z,36.20
2018-10-17T03:04:57.404Z,35.77
2018-10-17T03:07:25.194Z,34.67
2018-10-17T03:09:53.049Z,35.03
2018-10-17T03:12:20.783Z,35.83
2018-10-17T03:14:48.763Z,36.07
2018-10-17T03:17:16.797Z,35.37
2018-10-17T03:19:44.724Z,34.07
2018-10-17T03:22:12.568Z,34.30
2018-10-17T03:24:40.421Z,36.80
2018-10-17T03:27:08.351Z,35.93
2018-10-17T03:29:36.142Z,34.53
2018-10-17T03:32:04.323Z,34.47
2018-10-17T03:34:32.103Z,36.80
2018-10-17T03:36:59.963Z,36.87
2018-10-17T03:39:27.723Z,35.67
2018-10-17T03:41:55.536Z,37.17
2018-10-17T03:44:23.359Z,38.70
2018-10-17T03:46:51.114Z,45.47
2018-10-17T03:49:18.934Z,49.40
2018-10-17T03:51:46.643Z,51.87
2018-10-17T03:54:14.424Z,54.43
2018-10-17T03:56:42.237Z,53.33
2018-10-17T03:59:10.134Z,52.80
2018-10-17T04:01:37.799Z,50.53
2018-10-17T04:04:05.619Z,49.40
2018-10-17T04:06:33.427Z,50.00
2018-10-17T04:09:01.152Z,47.13
2018-10-17T04:11:28.855Z,41.00
2018-10-17T04:13:56.760Z,39.13
2018-10-17T04:16:24.632Z,34.93
2018-10-17T04:18:52.524Z,30.57
2018-10-17T04:21:20.261Z,28.43
2018-10-17T04:23:48.124Z,28.87
2018-10-17T04:26:15.909Z,28.03
2018-10-17T04:28:43.700Z,27.90
2018-10-17T04:31:11.571Z,28.57
2018-10-17T04:33:39.299Z,27.97
2018-10-17T04:36:07.184Z,27.13
2018-10-17T04:38:35.058Z,26.00
2018-10-17T04:41:03.025Z,25.43
2018-10-17T04:43:30.848Z,25.23
2018-10-17T04:45:58.676Z,25.70
2018-10-17T04:48:26.539Z,25.17
2018-10-17T04:50:54.277Z,25.87
2018-10-17T04:53:22.037Z,27.10
2018-10-17T04:55:49.788Z,27.97
2018-10-17T04:58:17.562Z,27.83
2018-10-17T05:00:45.283Z,26.37
2018-10-17T05:03:13.128Z,28.03
2018-10-17T05:05:41.022Z,27.60
2018-10-17T05:08:08.828Z,30.40
2018-10-17T05:10:36.587Z,32.07
2018-10-17T05:13:04.524Z,31.67
2018-10-17T05:15:32.243Z,32.47
2018-10-17T05:18:00.084Z,30.77
2018-10-17T05:20:27.964Z,33.20
2018-10-17T05:22:55.777Z,32.33
2018-10-17T05:25:23.437Z,35.03
2018-10-17T05:27:51.327Z,33.30
2018-10-17T05:30:19.092Z,33.87
2018-10-17T05:32:46.919Z,34.37
2018-10-17T05:35:14.732Z,34.90
2018-10-17T05:37:42.498Z,36.23
2018-10-17T05:40:10.272Z,36.37
2018-10-17T05:42:38.100Z,36.57
2018-10-17T05:45:07.419Z,36.23
2018-10-17T05:47:35.173Z,36.03
2018-10-17T05:50:02.984Z,35.93
2018-10-17T05:52:30.762Z,36.23
2018-10-17T05:54:58.581Z,36.20
2018-10-17T05:57:26.363Z,38.17
2018-10-17T05:59:54.161Z,40.07
2018-10-17T06:02:24.399Z,38.43
2018-10-17T06:04:52.522Z,38.33
2018-10-17T06:07:20.320Z,38.17
2018-10-17T06:09:48.154Z,37.17
2018-10-17T06:12:16.246Z,38.50
2018-10-17T06:14:44.128Z,39.13
2018-10-17T06:17:11.935Z,40.40
2018-10-17T06:19:39.647Z,41.50
2018-10-17T06:22:07.436Z,41.93
2018-10-17T06:24:35.253Z,42.23
2018-10-17T06:27:03.131Z,40.40
2018-10-17T06:29:31.064Z,38.97
2018-10-17T06:31:58.872Z,38.20
2018-10-17T06:34:26.751Z,41.80
2018-10-17T06:36:54.538Z,41.50
2018-10-17T06:39:22.424Z,42.30
2018-10-17T06:41:50.132Z,42.03
2018-10-17T06:44:17.910Z,41.47
2018-10-17T06:46:45.714Z,42.47
2018-10-17T06:49:13.674Z,44.73
2018-10-17T06:51:41.399Z,47.77
2018-10-17T06:56:44.502Z,50.37
2018-10-17T06:59:12.328Z,49.93
2018-10-17T07:01:40.149Z,46.23
2018-10-17T07:04:07.836Z,48.23
2018-10-17T07:06:35.626Z,45.80
2018-10-17T07:09:05.539Z,42.43
2018-10-17T07:11:33.244Z,38.10
2018-10-17T07:14:01.015Z,34.33
2018-10-17T07:16:28.751Z,29.63
2018-10-17T07:18:56.579Z,27.00
2018-10-17T07:21:24.317Z,24.97
2018-10-17T07:23:52.284Z,23.13
2018-10-17T07:26:20.036Z,23.30
2018-10-17T07:28:47.877Z,22.37
2018-10-17T07:31:15.597Z,22.50
2018-10-17T07:33:43.316Z,22.33
2018-10-17T07:36:11.203Z,22.30
2018-10-17T07:38:38.960Z,21.53
2018-10-17T07:41:07.543Z,22.00
2018-10-17T07:43:35.350Z,21.70
2018-10-17T07:46:03.195Z,21.13
2018-10-17T07:48:31.010Z,22.70
2018-10-17T07:50:58.799Z,21.60
2018-10-17T07:53:26.627Z,22.30
2018-10-17T07:55:54.403Z,21.43
2018-10-17T07:58:22.177Z,21.73
2018-10-17T08:00:49.962Z,22.30
2018-10-17T08:03:17.703Z,22.27
2018-10-17T08:05:45.464Z,21.97
2018-10-17T08:08:13.331Z,21.30
2018-10-17T08:10:41.047Z,21.33
2018-10-17T08:13:08.760Z,21.10
2018-10-17T08:15:36.519Z,20.67
2018-10-17T08:18:04.541Z,20.67
2018-10-17T08:20:32.243Z,21.17
2018-10-17T08:23:00.033Z,20.93
2018-10-17T08:25:27.817Z,20.30
2018-10-17T08:27:55.631Z,21.70
2018-10-17T08:30:23.468Z,22.13
2018-10-17T08:32:51.287Z,21.97
2018-10-17T08:35:19.122Z,21.10
2018-10-17T08:37:47.306Z,21.30
2018-10-17T08:40:14.724Z,20.37
2018-10-17T08:42:42.421Z,21.43
2018-10-17T08:45:10.445Z,20.07
2018-10-17T08:47:38.147Z,20.97
2018-10-17T08:50:06.038Z,20.43
2018-10-17T08:52:33.759Z,19.83
2018-10-17T08:55:01.564Z,21.40
2018-10-17T08:57:29.387Z,19.60
2018-10-17T08:59:57.235Z,19.80
2018-10-17T09:02:24.971Z,20.72
2018-10-17T09:04:52.749Z,19.82
2018-10-17T09:07:20.583Z,20.57
2018-10-17T09:09:48.427Z,20.35
2018-10-17T09:12:16.289Z,20.17
2018-10-17T09:14:43.990Z,19.75
2018-10-17T09:17:11.849Z,19.82
2018-10-17T09:19:39.894Z,20.68
2018-10-17T09:22:07.747Z,19.50
2018-10-17T09:24:35.359Z,20.48
2018-10-17T09:27:03.232Z,20.10
2018-10-17T09:29:30.976Z,19.57
2018-10-17T09:31:58.804Z,19.10
2018-10-17T09:34:26.711Z,20.43
2018-10-17T09:36:54.599Z,18.42
2018-10-17T09:39:22.423Z,19.80
2018-10-17T09:41:50.200Z,20.43
2018-10-17T09:44:18.032Z,19.20
2018-10-17T09:46:45.849Z,19.82
2018-10-17T09:49:13.615Z,20.27
2018-10-17T09:51:41.463Z,21.27
2018-10-17T09:54:09.307Z,22.13
2018-10-17T09:56:37.040Z,22.05
2018-10-17T09:59:04.829Z,24.95
2018-10-17T10:01:38.116Z,22.17
2018-10-17T10:04:06.870Z,22.32
2018-10-17T10:06:34.583Z,24.57
2018-10-17T10:09:03.661Z,23.73
2018-10-17T10:11:31.450Z,24.70
2018-10-17T10:13:59.301Z,25.35
2018-10-17T10:16:27.155Z,24.92
2018-10-17T10:18:54.970Z,23.65
2018-10-17T10:21:22.767Z,24.95
2018-10-17T10:23:50.565Z,25.57
2018-10-17T10:26:18.334Z,24.32
2018-10-17T10:28:46.055Z,25.40
2018-10-17T10:31:13.841Z,23.77
2018-10-17T10:33:41.673Z,22.22
2018-10-17T10:36:09.443Z,23.55
2018-10-17T10:38:37.242Z,24.90
2018-10-17T10:41:05.669Z,24.82
2018-10-17T10:43:33.445Z,24.90
2018-10-17T10:46:01.221Z,24.18
2018-10-17T10:48:28.999Z,24.43
2018-10-17T10:50:56.893Z,25.23
2018-10-17T10:53:24.638Z,26.65
2018-10-17T10:55:52.422Z,22.93
2018-10-17T10:58:20.288Z,24.15
2018-10-17T11:00:47.875Z,24.77
2018-10-17T11:03:15.704Z,24.23
2018-10-17T11:05:43.604Z,23.77
2018-10-17T11:08:11.337Z,24.67
2018-10-17T11:10:39.154Z,23.75
2018-10-17T11:13:07.239Z,25.80
2018-10-17T11:15:35.003Z,26.42
2018-10-17T11:18:02.852Z,24.47
2018-10-17T11:20:30.635Z,26.05
2018-10-17T11:22:58.488Z,25.65
2018-10-17T11:25:26.296Z,26.40
2018-10-17T11:27:54.161Z,25.80
2018-10-17T11:30:21.984Z,27.62
2018-10-17T11:32:49.737Z,27.13
2018-10-17T11:35:17.618Z,27.05
2018-10-17T11:37:45.403Z,27.00
2018-10-17T11:40:13.167Z,27.05
2018-10-17T11:42:40.984Z,25.10
2018-10-17T11:45:08.896Z,26.30
2018-10-17T11:47:36.675Z,25.90
2018-10-17T11:50:06.830Z,26.30
2018-10-17T11:52:34.589Z,25.50
2018-10-17T11:55:02.356Z,27.82
2018-10-17T11:57:30.099Z,27.20
2018-10-17T11:59:57.938Z,27.15
2018-10-17T12:02:25.954Z,27.95
2018-10-17T12:04:54.089Z,27.82
2018-10-17T12:07:21.635Z,27.37
2018-10-17T12:09:49.466Z,26.12
2018-10-17T12:12:17.312Z,26.23
2018-10-17T12:14:45.044Z,25.80
2018-10-17T12:17:12.778Z,27.02
2018-10-17T12:19:40.627Z,24.90
2018-10-17T12:22:08.416Z,26.65
2018-10-17T12:24:36.220Z,25.43
2018-10-17T12:27:04.207Z,27.55
2018-10-17T12:29:31.978Z,27.02
2018-10-17T12:31:59.828Z,25.35
2018-10-17T12:34:27.660Z,26.95
2018-10-17T12:36:55.523Z,24.77
2018-10-17T12:39:23.364Z,27.02
2018-10-17T12:41:51.041Z,25.40
2018-10-17T12:44:18.903Z,27.30
2018-10-17T12:46:46.622Z,26.42
2018-10-17T12:49:14.422Z,27.85
2018-10-17T12:51:42.185Z,24.12
2018-10-17T12:54:10.036Z,24.30
2018-10-17T12:56:37.856Z,21.80
2018-10-17T12:59:06.019Z,23.30
2018-10-17T13:01:33.836Z,24.67
2018-10-17T13:04:01.576Z,25.88
2018-10-17T13:06:29.359Z,23.90
2018-10-17T13:08:57.135Z,24.32
2018-10-17T13:11:24.970Z,24.12
2018-10-17T13:13:52.724Z,24.55
2018-10-17T13:16:20.560Z,22.98
2018-10-17T13:18:48.359Z,20.92
2018-10-17T13:21:16.119Z,23.27
2018-10-17T13:23:43.935Z,23.80
2018-10-17T13:26:11.718Z,24.30
2018-10-17T13:28:39.499Z,22.60
2018-10-17T13:31:07.297Z,21.57
2018-10-17T13:33:35.007Z,24.05
2018-10-17T13:36:02.862Z,24.32
2018-10-17T13:38:30.576Z,22.95
2018-10-17T13:40:58.377Z,23.67
2018-10-17T13:43:26.228Z,23.10
2018-10-17T13:45:54.086Z,23.20
2018-10-17T13:48:21.844Z,23.45
2018-10-17T13:50:49.626Z,22.00
2018-10-17T13:53:17.611Z,22.98
2018-10-17T13:55:45.263Z,21.57
2018-10-17T13:58:13.089Z,22.37
2018-10-17T14:00:40.856Z,21.45
2018-10-17T14:03:08.659Z,24.12
2018-10-17T14:05:36.431Z,24.18
2018-10-17T14:08:04.229Z,23.62
2018-10-17T14:10:32.000Z,21.60
2018-10-17T14:12:59.799Z,23.60
2018-10-17T14:15:27.638Z,22.98
2018-10-17T14:17:55.521Z,20.97
2018-10-17T14:20:23.339Z,23.87
2018-10-17T14:22:51.116Z,23.70
2018-10-17T14:25:18.832Z,20.50
2018-10-17T14:27:46.662Z,22.07
2018-10-17T14:30:14.515Z,21.73
2018-10-17T14:32:42.239Z,22.13
2018-10-17T14:35:11.347Z,21.55
2018-10-17T14:37:39.067Z,22.37
2018-10-17T14:40:06.979Z,21.55
2018-10-17T14:42:34.694Z,20.80
2018-10-17T14:45:02.606Z,21.77
2018-10-17T14:47:30.400Z,22.67
2018-10-17T14:49:58.183Z,21.82
2018-10-17T14:52:26.021Z,22.13
2018-10-17T14:54:53.892Z,21.77
2018-10-17T14:57:21.728Z,21.42
2018-10-17T14:59:49.576Z,22.17
2018-10-17T15:02:17.407Z,21.20
2018-10-17T15:04:45.175Z,19.25
2018-10-17T15:07:13.052Z,20.52
2018-10-17T15:09:40.873Z,19.82
2018-10-17T15:12:08.860Z,20.35
2018-10-17T15:14:36.563Z,20.23
2018-10-17T15:17:04.575Z,20.80
2018-10-17T15:19:32.126Z,23.65
2018-10-17T15:21:59.647Z,25.27
2018-10-17T15:24:27.259Z,16.67
2018-10-17T15:26:54.788Z,21.37
2018-10-17T15:29:22.258Z,15.00
2018-10-17T15:31:49.816Z,16.80
2018-10-17T15:34:17.302Z,17.00
2018-10-17T15:36:44.834Z,15.95
2018-10-17T15:39:12.401Z,16.77
2018-10-17T15:41:39.830Z,20.43
2018-10-17T15:44:07.934Z,22.50
2018-10-17T15:46:35.425Z,19.75
2018-10-17T15:49:02.919Z,20.35
2018-10-17T15:51:30.430Z,20.72
2018-10-17T15:53:58.002Z,21.12
2018-10-17T15:56:25.458Z,21.00
2018-10-17T15:58:52.963Z,24.77
2018-10-17T16:01:20.445Z,23.85
2018-10-17T16:03:47.942Z,22.55
2018-10-17T16:06:15.502Z,23.80
2018-10-17T16:08:42.958Z,23.12
2018-10-17T16:11:10.451Z,23.42
2018-10-17T16:13:37.950Z,25.70
2018-10-17T16:16:05.466Z,24.35
2018-10-17T16:18:32.954Z,23.57
2018-10-17T16:21:00.457Z,23.38
2018-10-17T16:23:27.950Z,22.05
2018-10-17T16:25:55.471Z,22.45
2018-10-17T16:28:22.982Z,23.10
2018-10-17T16:30:50.587Z,24.52
2018-10-17T16:33:17.997Z,25.27
2018-10-17T16:35:45.498Z,24.82
2018-10-17T16:38:13.077Z,25.08
2018-10-17T16:40:40.504Z,27.05
2018-10-17T16:43:08.011Z,27.80
2018-10-17T16:45:35.518Z,26.48
2018-10-17T16:48:03.396Z,28.50
2018-10-17T16:50:30.967Z,27.57
2018-10-17T16:52:58.365Z,23.17
2018-10-17T16:55:25.873Z,23.77
2018-10-17T16:57:53.424Z,25.73
2018-10-17T17:00:20.898Z,25.27
2018-10-17T17:02:48.405Z,27.40
2018-10-17T17:05:15.905Z,26.40
2018-10-17T17:07:43.409Z,27.07
2018-10-17T17:10:12.122Z,27.40
2018-10-17T17:12:39.794Z,26.80
2018-10-17T17:15:07.349Z,26.43
2018-10-17T17:17:34.847Z,28.83
2018-10-17T17:20:02.386Z,28.93
2018-10-17T17:22:29.920Z,31.70
2018-10-17T17:24:57.423Z,30.83
2018-10-17T17:27:24.954Z,30.07
2018-10-17T17:29:52.548Z,29.20
2018-10-17T17:32:19.994Z,28.63
2018-10-17T17:34:47.742Z,27.47
2018-10-17T17:37:15.248Z,27.80
2018-10-17T17:39:42.762Z,31.10
2018-10-17T17:42:10.334Z,31.80
2018-10-17T17:44:37.901Z,31.60
2018-10-17T17:47:06.143Z,31.63
2018-10-17T17:49:33.831Z,32.73
2018-10-17T17:52:01.349Z,32.40
2018-10-17T17:54:28.825Z,33.17
2018-10-17T17:56:56.332Z,34.23
2018-10-17T17:59:23.846Z,35.67
2018-10-17T18:01:51.333Z,36.83
2018-10-17T18:04:18.905Z,34.27
2018-10-17T18:06:46.354Z,34.67
2018-10-17T18:09:13.857Z,35.60
2018-10-17T18:11:41.341Z,36.03
2018-10-17T18:14:08.856Z,33.03
2018-10-17T18:16:36.363Z,34.33
2018-10-17T18:19:03.897Z,37.67
2018-10-17T18:21:31.389Z,41.07
2018-10-17T18:23:58.889Z,40.17
2018-10-17T18:26:26.374Z,43.03
2018-10-17T18:28:53.887Z,43.03
2018-10-17T18:31:21.382Z,42.73
2018-10-17T18:33:48.937Z,42.10
2018-10-17T18:36:16.398Z,39.30
2018-10-17T18:38:43.966Z,39.90
2018-10-17T18:41:11.584Z,38.70
2018-10-17T18:43:39.081Z,41.47
2018-10-17T18:46:06.583Z,41.27
2018-10-17T18:48:34.071Z,41.83
2018-10-17T18:51:01.621Z,38.50
2018-10-17T18:53:29.070Z,40.37
2018-10-17T18:55:56.609Z,40.73
2018-10-17T18:58:24.070Z,41.00
2018-10-17T19:00:51.564Z,40.83
2018-10-17T19:03:19.082Z,37.10
2018-10-17T19:05:46.565Z,36.37
2018-10-17T19:08:20.118Z,36.30
2018-10-17T19:10:55.576Z,35.90
2018-10-17T19:13:23.082Z,36.97
2018-10-17T19:15:50.599Z,38.57
2018-10-17T19:18:18.094Z,35.10
2018-10-17T19:20:45.598Z,34.47
2018-10-17T19:23:13.107Z,34.33
2018-10-17T19:25:40.614Z,35.67
2018-10-17T19:28:08.133Z,33.67
2018-10-17T19:30:35.626Z,34.10
2018-10-17T19:33:03.161Z,35.17
2018-10-17T19:35:30.689Z,33.57
2018-10-17T19:37:58.190Z,34.33
2018-10-17T19:40:25.710Z,36.17
2018-10-17T19:42:53.215Z,36.27
2018-10-17T19:45:20.795Z,38.40
2018-10-17T19:47:48.408Z,40.80
2018-10-17T19:50:15.867Z,42.10
2018-10-17T19:52:43.374Z,42.03
2018-10-17T19:55:10.918Z,41.67
2018-10-17T19:57:38.620Z,39.93
2018-10-17T20:00:09.815Z,41.23
2018-10-17T20:02:37.366Z,38.27
2018-10-17T20:05:04.894Z,41.93
2018-10-17T20:07:32.436Z,44.67
2018-10-17T20:09:59.970Z,49.00
2018-10-17T20:12:27.495Z,53.17
2018-10-17T20:15:07.555Z,52.13
2018-10-17T20:17:40.722Z,54.87
2018-10-17T20:20:27.478Z,57.50
2018-10-17T20:22:54.977Z,56.20
2018-10-17T20:25:22.502Z,57.67
2018-10-17T20:27:50.030Z,60.70
2018-10-17T20:30:17.551Z,64.10
2018-10-17T20:36:17.959Z,61.27
2018-10-17T20:38:45.497Z,61.80
2018-10-17T20:41:13.042Z,62.47
2018-10-17T20:43:44.423Z,63.80
2018-10-17T20:46:14.006Z,60.90
2018-10-17T20:48:41.516Z,48.07
2018-10-17T20:51:09.040Z,49.97
2018-10-17T20:53:36.555Z,48.33
2018-10-17T20:56:04.127Z,48.60
2018-10-17T20:58:31.610Z,47.87
2018-10-17T21:01:06.810Z,45.00
2018-10-17T21:03:34.327Z,41.77
2018-10-17T21:06:01.854Z,40.97
2018-10-17T21:08:29.358Z,40.03
2018-10-17T21:10:56.867Z,43.37
2018-10-17T21:13:27.711Z,44.53
2018-10-17T21:15:55.209Z,44.53
2018-10-17T21:18:22.761Z,44.60
2018-10-17T21:20:50.226Z,47.10
2018-10-17T21:23:17.726Z,50.97
2018-10-17T21:25:45.258Z,45.07
2018-10-17T21:28:12.861Z,42.93
2018-10-17T21:30:40.374Z,39.27
2018-10-17T21:33:07.903Z,40.87
2018-10-17T21:35:35.411Z,40.67
2018-10-17T21:38:02.909Z,42.30
2018-10-17T21:40:30.393Z,42.23
2018-10-17T21:42:57.898Z,42.17
2018-10-17T21:45:25.571Z,42.03
2018-10-17T21:47:53.134Z,43.80
2018-10-17T21:50:20.650Z,42.13
2018-10-17T21:53:14.717Z,41.47
2018-10-17T21:55:42.243Z,43.13
2018-10-17T21:58:09.742Z,45.97
2018-10-17T22:00:37.810Z,46.87
2018-10-17T22:03:05.325Z,47.90
2018-10-17T22:05:32.846Z,50.70
2018-10-17T22:08:00.367Z,50.13
2018-10-17T22:10:27.876Z,51.87
2018-10-17T22:12:55.393Z,50.50
2018-10-17T22:15:22.922Z,46.57
2018-10-17T22:17:50.425Z,45.23
2018-10-17T22:20:18.033Z,47.03
2018-10-17T22:22:45.466Z,47.27
2018-10-17T22:25:12.977Z,46.00
2018-10-17T22:27:40.496Z,46.90
2018-10-17T22:30:08.156Z,44.37
2018-10-17T22:32:35.542Z,47.23
2018-10-17T22:35:03.074Z,46.63
2018-10-17T22:37:30.578Z,46.80
2018-10-17T22:39:58.095Z,47.00
2018-10-17T22:42:25.620Z,47.93
2018-10-17T22:44:53.161Z,50.57
2018-10-17T22:47:20.670Z,51.33
2018-10-17T22:49:48.196Z,52.80
2018-10-17T22:52:15.714Z,52.83
2018-10-17T22:54:43.251Z,51.00
2018-10-17T22:57:10.754Z,49.60
2018-10-17T22:59:38.263Z,51.10
2018-10-17T23:02:05.850Z,50.53
2018-10-17T23:04:33.346Z,50.03
2018-10-17T23:07:00.858Z,48.67
2018-10-17T23:09:28.378Z,50.53
2018-10-17T23:11:55.898Z,48.13
2018-10-17T23:14:23.414Z,45.33
2018-10-17T23:16:50.948Z,44.83
2018-10-17T23:19:18.454Z,45.23
2018-10-17T23:21:45.970Z,47.83
2018-10-17T23:24:13.479Z,47.17
2018-10-17T23:26:40.986Z,50.60
2018-10-17T23:29:08.503Z,50.37
2018-10-17T23:31:36.038Z,49.57
2018-10-17T23:34:03.617Z,53.63
2018-10-17T23:36:31.114Z,56.40
2018-10-17T23:38:58.622Z,57.30
2018-10-17T23:41:26.149Z,59.17
2018-10-17T23:43:53.676Z,57.40
2018-10-17T23:46:21.175Z,56.87
2018-10-17T23:48:48.715Z,55.27
2018-10-17T23:51:16.218Z,53.27
2018-10-17T23:53:43.706Z,54.87
2018-10-17T23:56:11.251Z,53.37
2018-10-17T23:58:38.693Z,52.97
